Fantasia — ICJY — position and weather

sailwx.info

Track history (hours):
 
Tides and Currents Weather Stations Pressure Air Temp Water Temp Dewpoint Dewpoint Depression Visibility Wind Speed Wind Dir Waves Ship Positions

Fantasia

Last reported at 2015-Sep-01 05:27 UTC. Time now 2015-Sep-02 00:27 UTC.
Position N 48°52' W 122°46'.

Length 183 m; draft 7.9 m.

Type: Tanker. MMSI: 247279600.

Date/timePositionNaut miles runAvg speedWind from/ knotsBaromVisibWave heightAir tempDewpointWater temp
2015-Sep-01 05:27N 48°52' W 122°46'1 1.0
2015-Sep-01 04:34N 48°51' W 122°45'7 6.6
2015-Sep-01 03:33N 48°44' W 122°45'11 5.5
2015-Sep-01 01:33N 48°37' W 122°33'0 0.0
2015-Aug-31 23:33N 48°37' W 122°33'0 0.0
2015-Aug-31 22:33N 48°37' W 122°33'0 0.0
2015-Aug-31 21:27N 48°37' W 122°33'0 0.0
2015-Aug-31 18:24N 48°37' W 122°33'0 0.0
2015-Aug-31 15:27N 48°37' W 122°33'0 0.0
2015-Aug-31 14:33N 48°37' W 122°33'0 0.0
2015-Aug-31 12:33N 48°37' W 122°33'0 0.0
2015-Aug-31 11:15N 48°37' W 122°33'0 0.1
2015-Aug-31 10:33N 48°37' W 122°33'0 0.0
2015-Aug-31 09:33N 48°37' W 122°33'0 0.1
2015-Aug-31 08:33N 48°37' W 122°33'5 5.4
2015-Aug-31 07:33N 48°35' W 122°40'1212.0
2015-Aug-31 06:33N 48°24' W 122°48'1413.5
2015-Aug-31 05:31N 48°16' W 123°06'1212.6
2015-Aug-31 04:33N 48°10' W 123°22'1010.0
2015-Aug-31 03:33N 48°13' W 123°36'1512.7
2015-Aug-31 02:22N 48°15' W 123°59'1113.9
2015-Aug-31 01:33N 48°19' W 124°14'2914.4
2015-Aug-30 23:31N 48°28' W 124°56'7011.3
2015-Aug-30 17:23N 47°19' W 125°07'1012.1
2015-Aug-30 16:31N 47°09' W 125°09'1212.1
2015-Aug-30 15:33N 46°58' W 125°15'1312.9
2015-Aug-30 14:33N 46°46' W 125°23'1212.2
2015-Aug-30 13:32N 46°34' W 125°24'1212.5
2015-Aug-30 12:33N 46°22' W 125°25'1312.9
2015-Aug-30 11:33N 46°09' W 125°26'1313.0
2015-Aug-30 10:33N 45°56' W 125°28'1513.2
2015-Aug-30 09:27N 45°41' W 125°29'2714.2
2015-Aug-30 07:33N 45°14' W 125°30'1414.0
2015-Aug-30 06:33N 45°01' W 125°31'36713.1
2015-Aug-29 02:27N 38°54' W 125°05'1314.1
2015-Aug-29 01:30N 38°41' W 125°01'2913.9
2015-Aug-28 23:24N 38°12' W 124°52'3013.7
2015-Aug-28 21:13N 37°43' W 124°43'1213.4
2015-Aug-28 20:18N 37°31' W 124°40'1013.4
2015-Aug-28 19:33N 37°21' W 124°37'5513.2
2015-Aug-28 15:23N 36°31' W 124°10'5213.5
2015-Aug-28 11:33N 35°59' W 123°19'1613.3
2015-Aug-28 10:21N 35°49' W 123°03'2613.1
2015-Aug-28 08:21N 35°33' W 122°38'1012.8
2015-Aug-28 07:33N 35°27' W 122°28'1813.1
2015-Aug-28 06:12N 35°16' W 122°11'1513.2
2015-Aug-28 05:04N 35°07' W 121°56'713.4
2015-Aug-28 04:33N 35°03' W 121°49'1313.1
2015-Aug-28 03:33N 34°55' W 121°37'1313.0
2015-Aug-28 02:33N 34°47' W 121°24'1212.4
2015-Aug-28 01:33N 34°39' W 121°12'1212.3
2015-Aug-28 00:33N 34°32' W 121°00'1313.1
2015-Aug-27 23:33N 34°25' W 120°47'1313.3
2015-Aug-27 22:33N 34°22' W 120°31'2713.5
2015-Aug-27 20:31N 34°14' W 119°59'1413.4
2015-Aug-27 19:31N 34°11' W 119°43'1414.3
2015-Aug-27 18:31N 34°07' W 119°27'1313.8
2015-Aug-27 17:33N 34°02' W 119°12'1414.1
2015-Aug-27 16:33N 33°55' W 118°57'1414.0
2015-Aug-27 15:34N 33°49' W 118°42'1414.0
2015-Aug-27 14:34N 33°42' W 118°28'1110.5
2015-Aug-27 13:33N 33°43' W 118°15'3 2.9
2015-Aug-27 12:31N 33°45' W 118°16'0 0.0
2015-Aug-27 11:31N 33°45' W 118°16'0 0.0
2015-Aug-27 10:31N 33°45' W 118°16'0 0.0
2015-Aug-27 09:31N 33°45' W 118°16'0 0.0
2015-Aug-27 08:31N 33°45' W 118°16'0 0.0
2015-Aug-27 07:31N 33°45' W 118°16'0 0.0
2015-Aug-27 06:31N 33°45' W 118°16'0 0.0
2015-Aug-27 05:31N 33°45' W 118°16'0 0.0
2015-Aug-27 04:31N 33°45' W 118°16'0 0.0
2015-Aug-27 03:28N 33°45' W 118°16'0 0.0
2015-Aug-27 02:31N 33°45' W 118°16'0 0.0
2015-Aug-27 01:28N 33°45' W 118°16'0 0.0
2015-Aug-27 00:31N 33°45' W 118°16'0 0.0
2015-Aug-26 23:28N 33°45' W 118°16'0 0.0
2015-Aug-26 22:16N 33°45' W 118°16'0 0.0
2015-Aug-26 21:31N 33°45' W 118°16'0 0.0
2015-Aug-26 20:31N 33°45' W 118°16'0 0.0
2015-Aug-26 19:31N 33°45' W 118°16'0 0.0
2015-Aug-26 18:31N 33°45' W 118°16'0 0.0
2015-Aug-26 17:31N 33°45' W 118°16'0 0.0
2015-Aug-26 16:31N 33°45' W 118°16'0 0.0
2015-Aug-26 15:28N 33°45' W 118°16'0 0.0
2015-Aug-26 14:31N 33°45' W 118°16'0 0.0
2015-Aug-26 13:31N 33°45' W 118°16'0 0.0
2015-Aug-26 12:31N 33°45' W 118°16'0 0.0
2015-Aug-26 11:31N 33°45' W 118°16'0 0.0
2015-Aug-26 10:31N 33°45' W 118°16'0 0.0
2015-Aug-26 09:31N 33°45' W 118°16'0 0.0
2015-Aug-26 08:31N 33°45' W 118°16'0 0.0
2015-Aug-26 07:31N 33°45' W 118°16'0 0.0
2015-Aug-26 06:31N 33°45' W 118°16'0 0.0
2015-Aug-26 05:19N 33°45' W 118°16'0 0.0
2015-Aug-26 04:31N 33°45' W 118°16'0 0.0
2015-Aug-26 03:31N 33°45' W 118°16'0 0.0
2015-Aug-26 02:31N 33°45' W 118°16'0 0.0
2015-Aug-26 01:31N 33°45' W 118°16'0 0.0
2015-Aug-26 00:31N 33°45' W 118°16'0 0.0
2015-Aug-25 23:31N 33°45' W 118°16'0 0.0
2015-Aug-25 22:31N 33°45' W 118°16'0 0.0
2015-Aug-25 21:25N 33°45' W 118°16'0 0.0
2015-Aug-25 19:07N 33°45' W 118°16'0 0.0
2015-Aug-25 15:31N 33°45' W 118°16'0 0.0
2015-Aug-25 13:25N 33°45' W 118°16'0 0.0
2015-Aug-25 11:20N 33°45' W 118°16'2 2.1
2015-Aug-25 10:33N 33°44' W 118°16'4 3.7
2015-Aug-25 09:32N 33°43' W 118°12'0 0.0
2015-Aug-25 08:32N 33°43' W 118°12'0 0.0
2015-Aug-25 07:32N 33°43' W 118°12'0 0.1
2015-Aug-25 06:32N 33°43' W 118°12'0 0.1
2015-Aug-25 05:32N 33°43' W 118°12'0 0.0
2015-Aug-25 04:32N 33°43' W 118°12'0 0.0
2015-Aug-25 03:32N 33°43' W 118°12'0 0.0
2015-Aug-25 02:32N 33°43' W 118°12'0 0.0
2015-Aug-25 01:32N 33°43' W 118°12'0 0.0
2015-Aug-25 00:32N 33°43' W 118°12'0 0.0
2015-Aug-24 23:32N 33°43' W 118°12'0 0.0
2015-Aug-24 22:32N 33°43' W 118°12'0 0.1
2015-Aug-24 21:32N 33°43' W 118°12'0 0.0
2015-Aug-24 20:32N 33°43' W 118°12'0 0.1
2015-Aug-24 19:32N 33°43' W 118°12'0 0.1
2015-Aug-24 18:32N 33°43' W 118°12'0 0.1
2015-Aug-24 17:32N 33°43' W 118°12'0 0.1
2015-Aug-24 16:32N 33°43' W 118°12'0 0.1
2015-Aug-24 15:32N 33°43' W 118°12'0 0.0
2015-Aug-24 14:32N 33°43' W 118°12'0 0.0
2015-Aug-24 13:32N 33°43' W 118°12'0 0.0
2015-Aug-24 12:29N 33°43' W 118°12'0 0.0
2015-Aug-24 11:32N 33°43' W 118°12'0 0.0
2015-Aug-24 10:29N 33°43' W 118°12'0 0.0
2015-Aug-24 09:32N 33°43' W 118°12'0 0.1
2015-Aug-24 08:32N 33°43' W 118°12'0 0.0
2015-Aug-24 07:32N 33°43' W 118°12'0 0.1
2015-Aug-24 06:33N 33°43' W 118°12'0 0.1
2015-Aug-24 05:33N 33°43' W 118°12'5 5.0
2015-Aug-24 04:33N 33°38' W 118°11'1111.0
2015-Aug-24 03:33N 33°27' W 118°06'1414.2
2015-Aug-24 02:33N 33°14' W 118°01'1414.2
2015-Aug-24 01:33N 33°00' W 117°57'1514.6
2015-Aug-24 00:33N 32°46' W 117°53'1110.6
2015-Aug-23 23:33N 32°35' W 117°51'1313.1
2015-Aug-23 22:33N 32°23' W 117°45'1414.2
2015-Aug-23 21:33N 32°09' W 117°41'1414.1
2015-Aug-23 20:34N 31°56' W 117°36'1414.4
2015-Aug-23 19:33N 31°42' W 117°30'1514.8
2015-Aug-23 18:32N 31°28' W 117°25'1814.6
2015-Aug-23 17:19N 31°11' W 117°19'1214.5
2015-Aug-23 16:29N 30°59' W 117°15'  
Track history (hours):
 
Tides and Currents Weather Stations Pressure Air Temp Water Temp Dewpoint Dewpoint Depression Visibility Wind Speed Wind Dir Waves Ship Positions

Fantasia

Last reported at 2015-Sep-01 05:27 UTC. Time now 2015-Sep-02 00:27 UTC.
Position N 48°52' W 122°46'.

Length 183 m; draft 7.9 m.

Type: Tanker. MMSI: 247279600.

Date/timePositionNaut miles runAvg speedWind from/ knotsBaromVisibWave heightAir tempDewpointWater temp
2015-Sep-01 05:27N 48°52' W 122°46'1 1.0
2015-Sep-01 04:34N 48°51' W 122°45'7 6.6
2015-Sep-01 03:33N 48°44' W 122°45'11 5.5
2015-Sep-01 01:33N 48°37' W 122°33'0 0.0
2015-Aug-31 23:33N 48°37' W 122°33'0 0.0
2015-Aug-31 22:33N 48°37' W 122°33'0 0.0
2015-Aug-31 21:27N 48°37' W 122°33'0 0.0
2015-Aug-31 18:24N 48°37' W 122°33'0 0.0
2015-Aug-31 15:27N 48°37' W 122°33'0 0.0
2015-Aug-31 14:33N 48°37' W 122°33'0 0.0
2015-Aug-31 12:33N 48°37' W 122°33'0 0.0
2015-Aug-31 11:15N 48°37' W 122°33'0 0.1
2015-Aug-31 10:33N 48°37' W 122°33'0 0.0
2015-Aug-31 09:33N 48°37' W 122°33'0 0.1
2015-Aug-31 08:33N 48°37' W 122°33'5 5.4
2015-Aug-31 07:33N 48°35' W 122°40'1212.0
2015-Aug-31 06:33N 48°24' W 122°48'1413.5
2015-Aug-31 05:31N 48°16' W 123°06'1212.6
2015-Aug-31 04:33N 48°10' W 123°22'1010.0
2015-Aug-31 03:33N 48°13' W 123°36'1512.7
2015-Aug-31 02:22N 48°15' W 123°59'1113.9
2015-Aug-31 01:33N 48°19' W 124°14'2914.4
2015-Aug-30 23:31N 48°28' W 124°56'7011.3
2015-Aug-30 17:23N 47°19' W 125°07'1012.1
2015-Aug-30 16:31N 47°09' W 125°09'1212.1
2015-Aug-30 15:33N 46°58' W 125°15'1312.9
2015-Aug-30 14:33N 46°46' W 125°23'1212.2
2015-Aug-30 13:32N 46°34' W 125°24'1212.5
2015-Aug-30 12:33N 46°22' W 125°25'1312.9
2015-Aug-30 11:33N 46°09' W 125°26'1313.0
2015-Aug-30 10:33N 45°56' W 125°28'1513.2
2015-Aug-30 09:27N 45°41' W 125°29'2714.2
2015-Aug-30 07:33N 45°14' W 125°30'1414.0
2015-Aug-30 06:33N 45°01' W 125°31'36713.1
2015-Aug-29 02:27N 38°54' W 125°05'1314.1
2015-Aug-29 01:30N 38°41' W 125°01'2913.9
2015-Aug-28 23:24N 38°12' W 124°52'3013.7
2015-Aug-28 21:13N 37°43' W 124°43'1213.4
2015-Aug-28 20:18N 37°31' W 124°40'1013.4
2015-Aug-28 19:33N 37°21' W 124°37'5513.2
2015-Aug-28 15:23N 36°31' W 124°10'5213.5
2015-Aug-28 11:33N 35°59' W 123°19'1613.3
2015-Aug-28 10:21N 35°49' W 123°03'2613.1
2015-Aug-28 08:21N 35°33' W 122°38'1012.8
2015-Aug-28 07:33N 35°27' W 122°28'1813.1
2015-Aug-28 06:12N 35°16' W 122°11'1513.2
2015-Aug-28 05:04N 35°07' W 121°56'713.4
2015-Aug-28 04:33N 35°03' W 121°49'1313.1
2015-Aug-28 03:33N 34°55' W 121°37'1313.0
2015-Aug-28 02:33N 34°47' W 121°24'1212.4
2015-Aug-28 01:33N 34°39' W 121°12'1212.3
2015-Aug-28 00:33N 34°32' W 121°00'1313.1
2015-Aug-27 23:33N 34°25' W 120°47'1313.3
2015-Aug-27 22:33N 34°22' W 120°31'2713.5
2015-Aug-27 20:31N 34°14' W 119°59'1413.4
2015-Aug-27 19:31N 34°11' W 119°43'1414.3
2015-Aug-27 18:31N 34°07' W 119°27'1313.8
2015-Aug-27 17:33N 34°02' W 119°12'1414.1
2015-Aug-27 16:33N 33°55' W 118°57'1414.0
2015-Aug-27 15:34N 33°49' W 118°42'1414.0
2015-Aug-27 14:34N 33°42' W 118°28'1110.5
2015-Aug-27 13:33N 33°43' W 118°15'3 2.9
2015-Aug-27 12:31N 33°45' W 118°16'0 0.0
2015-Aug-27 11:31N 33°45' W 118°16'0 0.0
2015-Aug-27 10:31N 33°45' W 118°16'0 0.0
2015-Aug-27 09:31N 33°45' W 118°16'0 0.0
2015-Aug-27 08:31N 33°45' W 118°16'0 0.0
2015-Aug-27 07:31N 33°45' W 118°16'0 0.0
2015-Aug-27 06:31N 33°45' W 118°16'0 0.0
2015-Aug-27 05:31N 33°45' W 118°16'0 0.0
2015-Aug-27 04:31N 33°45' W 118°16'0 0.0
2015-Aug-27 03:28N 33°45' W 118°16'0 0.0
2015-Aug-27 02:31N 33°45' W 118°16'0 0.0
2015-Aug-27 01:28N 33°45' W 118°16'0 0.0
2015-Aug-27 00:31N 33°45' W 118°16'0 0.0
2015-Aug-26 23:28N 33°45' W 118°16'0 0.0
2015-Aug-26 22:16N 33°45' W 118°16'0 0.0
2015-Aug-26 21:31N 33°45' W 118°16'0 0.0
2015-Aug-26 20:31N 33°45' W 118°16'0 0.0
2015-Aug-26 19:31N 33°45' W 118°16'0 0.0
2015-Aug-26 18:31N 33°45' W 118°16'0 0.0
2015-Aug-26 17:31N 33°45' W 118°16'0 0.0
2015-Aug-26 16:31N 33°45' W 118°16'0 0.0
2015-Aug-26 15:28N 33°45' W 118°16'0 0.0
2015-Aug-26 14:31N 33°45' W 118°16'0 0.0
2015-Aug-26 13:31N 33°45' W 118°16'0 0.0
2015-Aug-26 12:31N 33°45' W 118°16'0 0.0
2015-Aug-26 11:31N 33°45' W 118°16'0 0.0
2015-Aug-26 10:31N 33°45' W 118°16'0 0.0
2015-Aug-26 09:31N 33°45' W 118°16'0 0.0
2015-Aug-26 08:31N 33°45' W 118°16'0 0.0
2015-Aug-26 07:31N 33°45' W 118°16'0 0.0
2015-Aug-26 06:31N 33°45' W 118°16'0 0.0
2015-Aug-26 05:19N 33°45' W 118°16'0 0.0
2015-Aug-26 04:31N 33°45' W 118°16'0 0.0
2015-Aug-26 03:31N 33°45' W 118°16'0 0.0
2015-Aug-26 02:31N 33°45' W 118°16'0 0.0
2015-Aug-26 01:31N 33°45' W 118°16'0 0.0
2015-Aug-26 00:31N 33°45' W 118°16'0 0.0
2015-Aug-25 23:31N 33°45' W 118°16'0 0.0
2015-Aug-25 22:31N 33°45' W 118°16'0 0.0
2015-Aug-25 21:25N 33°45' W 118°16'0 0.0
2015-Aug-25 19:07N 33°45' W 118°16'0 0.0
2015-Aug-25 15:31N 33°45' W 118°16'0 0.0
2015-Aug-25 13:25N 33°45' W 118°16'0 0.0
2015-Aug-25 11:20N 33°45' W 118°16'2 2.1
2015-Aug-25 10:33N 33°44' W 118°16'4 3.7
2015-Aug-25 09:32N 33°43' W 118°12'0 0.0
2015-Aug-25 08:32N 33°43' W 118°12'0 0.0
2015-Aug-25 07:32N 33°43' W 118°12'0 0.1
2015-Aug-25 06:32N 33°43' W 118°12'0 0.1
2015-Aug-25 05:32N 33°43' W 118°12'0 0.0
2015-Aug-25 04:32N 33°43' W 118°12'0 0.0
2015-Aug-25 03:32N 33°43' W 118°12'0 0.0
2015-Aug-25 02:32N 33°43' W 118°12'0 0.0
2015-Aug-25 01:32N 33°43' W 118°12'0 0.0
2015-Aug-25 00:32N 33°43' W 118°12'0 0.0
2015-Aug-24 23:32N 33°43' W 118°12'0 0.0
2015-Aug-24 22:32N 33°43' W 118°12'0 0.1
2015-Aug-24 21:32N 33°43' W 118°12'0 0.0
2015-Aug-24 20:32N 33°43' W 118°12'0 0.1
2015-Aug-24 19:32N 33°43' W 118°12'0 0.1
2015-Aug-24 18:32N 33°43' W 118°12'0 0.1
2015-Aug-24 17:32N 33°43' W 118°12'0 0.1
2015-Aug-24 16:32N 33°43' W 118°12'0 0.1
2015-Aug-24 15:32N 33°43' W 118°12'0 0.0
2015-Aug-24 14:32N 33°43' W 118°12'0 0.0
2015-Aug-24 13:32N 33°43' W 118°12'0 0.0
2015-Aug-24 12:29N 33°43' W 118°12'0 0.0
2015-Aug-24 11:32N 33°43' W 118°12'0 0.0
2015-Aug-24 10:29N 33°43' W 118°12'0 0.0
2015-Aug-24 09:32N 33°43' W 118°12'0 0.1
2015-Aug-24 08:32N 33°43' W 118°12'0 0.0
2015-Aug-24 07:32N 33°43' W 118°12'0 0.1
2015-Aug-24 06:33N 33°43' W 118°12'0 0.1
2015-Aug-24 05:33N 33°43' W 118°12'5 5.0
2015-Aug-24 04:33N 33°38' W 118°11'1111.0
2015-Aug-24 03:33N 33°27' W 118°06'1414.2
2015-Aug-24 02:33N 33°14' W 118°01'1414.2
2015-Aug-24 01:33N 33°00' W 117°57'1514.6
2015-Aug-24 00:33N 32°46' W 117°53'1110.6
2015-Aug-23 23:33N 32°35' W 117°51'1313.1
2015-Aug-23 22:33N 32°23' W 117°45'1414.2
2015-Aug-23 21:33N 32°09' W 117°41'1414.1
2015-Aug-23 20:34N 31°56' W 117°36'1414.4
2015-Aug-23 19:33N 31°42' W 117°30'1514.8
2015-Aug-23 18:32N 31°28' W 117°25'1814.6
2015-Aug-23 17:19N 31°11' W 117°19'1214.5
2015-Aug-23 16:29N 30°59' W 117°15'  

Dump ship's entire track history